Time,TemperatureF,DewpointF,PressureIn,WindDirection,WindDirectionDegrees,WindSpeedMPH,WindSpeedGustMPH,Humidity,HourlyPrecipIn,Conditions,Clouds,dailyrainin,SolarRadiationWatts/m^2,SoftwareType,DateUTC
2013-03-18 00:00:00,21.4,12.2,30.36,West,269,0.0,0.0,67,0.00,,---,0.00,0.00,VWS V14.01,2013-03-18 04:00:00,
2013-03-18 00:05:00,21.1,12.2,30.36,West,269,0.0,0.0,68,0.00,,---,0.00,0.00,VWS V14.01,2013-03-18 04:05:00,
2013-03-18 00:10:00,21.0,12.1,30.36,West,269,0.0,0.0,68,0.00,,---,0.00,0.00,VWS V14.01,2013-03-18 04:10:00,
2013-03-18 00:15:00,20.9,12.0,30.36,West,269,0.0,0.0,68,0.00,,---,0.00,0.00,VWS V14.01,2013-03-18 04:15:00,
2013-03-18 00:20:00,20.7,12.5,30.37,West,269,0.0,0.0,70,0.00,,---,0.00,0.00,VWS V14.01,2013-03-18 04:20:00,
2013-03-18 00:25:00,20.5,12.6,30.37,West,269,0.0,0.0,71,0.00,,---,0.00,0.00,VWS V14.01,2013-03-18 04:25:00,
2013-03-18 00:30:00,20.3,12.7,30.37,West,269,0.0,0.0,72,0.00,,---,0.00,0.00,VWS V14.01,2013-03-18 04:30:00,
2013-03-18 00:35:00,20.1,12.9,30.37,West,269,0.0,0.0,73,0.00,,---,0.00,0.00,VWS V14.01,2013-03-18 04:35:00,
2013-03-18 00:40:00,20.0,13.1,30.37,West,269,0.0,0.0,74,0.00,,---,0.00,0.00,VWS V14.01,2013-03-18 04:40:00,
2013-03-18 00:45:00,19.8,12.9,30.37,West,269,0.0,0.0,74,0.00,,---,0.00,0.00,VWS V14.01,2013-03-18 04:45:00,
2013-03-18 00:50:00,19.7,12.8,30.37,West,269,0.0,0.0,74,0.00,,---,0.00,0.00,VWS V14.01,2013-03-18 04:50:00,
2013-03-18 00:55:00,19.5,12.6,30.37,West,269,0.0,0.0,74,0.00,,---,0.00,0.00,VWS V14.01,2013-03-18 04:55:00,
2013-03-18 01:00:00,19.5,13.2,30.37,West,269,0.0,0.0,76,0.00,,---,0.00,0.00,VWS V14.01,2013-03-18 05:00:00,
2013-03-18 01:05:00,19.4,13.1,30.37,West,269,0.0,0.0,76,0.00,,---,0.00,0.00,VWS V14.01,2013-03-18 05:05:00,
2013-03-18 01:10:00,19.2,12.6,30.38,West,269,0.0,0.0,75,0.00,,---,0.00,0.00,VWS V14.01,2013-03-18 05:10:00,
2013-03-18 01:15:00,19.1,12.8,30.37,West,269,0.0,0.0,76,0.00,,---,0.00,0.00,VWS V14.01,2013-03-18 05:15:00,
2013-03-18 01:20:00,18.9,12.6,30.37,West,269,0.0,0.0,76,0.00,,---,0.00,0.00,VWS V14.01,2013-03-18 05:20:00,
2013-03-18 01:25:00,18.8,12.8,30.37,West,269,0.0,0.0,77,0.00,,---,0.00,0.00,VWS V14.01,2013-03-18 05:25:00,
2013-03-18 01:30:00,18.7,13.0,30.38,West,269,0.0,0.0,78,0.00,,---,0.00,0.00,VWS V14.01,2013-03-18 05:30:00,
2013-03-18 01:35:00,18.6,12.9,30.38,West,269,0.0,0.0,78,0.00,,---,0.00,0.00,VWS V14.01,2013-03-18 05:35:00,
2013-03-18 01:40:00,18.5,12.5,30.38,West,269,0.0,0.0,77,0.00,,---,0.00,0.00,VWS V14.01,2013-03-18 05:40:00,
2013-03-18 01:45:00,18.4,12.7,30.39,West,269,0.0,0.0,78,0.00,,---,0.00,0.00,VWS V14.01,2013-03-18 05:45:00,
2013-03-18 01:50:00,18.3,12.6,30.39,West,269,0.0,0.0,78,0.00,,---,0.00,0.00,VWS V14.01,2013-03-18 05:50:00,
2013-03-18 01:55:00,18.1,12.7,30.40,West,269,0.0,0.0,79,0.00,,---,0.00,0.00,VWS V14.01,2013-03-18 05:55:00,
2013-03-18 02:00:00,17.9,12.2,30.40,West,269,0.0,0.0,78,0.00,,---,0.00,0.00,VWS V14.01,2013-03-18 06:00:00,
2013-03-18 02:05:00,17.7,12.0,30.41,West,269,0.0,0.0,78,0.00,,---,0.00,0.00,VWS V14.01,2013-03-18 06:05:00,
2013-03-18 02:10:00,17.6,11.9,30.41,West,269,0.0,0.0,78,0.00,,---,0.00,0.00,VWS V14.01,2013-03-18 06:10:00,
2013-03-18 02:15:00,17.5,12.1,30.41,West,269,0.0,0.0,79,0.00,,---,0.00,0.00,VWS V14.01,2013-03-18 06:15:00,
2013-03-18 02:20:00,17.4,12.0,30.41,West,269,0.0,0.0,79,0.00,,---,0.00,0.00,VWS V14.01,2013-03-18 06:20:00,
2013-03-18 02:25:00,17.4,12.0,30.41,West,269,0.0,0.0,79,0.00,,---,0.00,0.00,VWS V14.01,2013-03-18 06:25:00,
2013-03-18 02:30:00,17.4,12.3,30.41,West,269,0.0,0.0,80,0.00,,---,0.00,0.00,VWS V14.01,2013-03-18 06:30:00,
2013-03-18 02:35:00,17.4,12.3,30.41,West,269,0.0,0.0,80,0.00,,---,0.00,0.00,VWS V14.01,2013-03-18 06:35:00,
2013-03-18 02:40:00,17.3,12.2,30.41,West,269,0.0,0.0,80,0.00,,---,0.00,0.00,VWS V14.01,2013-03-18 06:40:00,
2013-03-18 02:45:00,17.2,12.1,30.41,West,269,0.0,0.0,80,0.00,,---,0.00,0.00,VWS V14.01,2013-03-18 06:45:00,
2013-03-18 02:56:00,17.2,12.1,30.41,West,269,0.0,0.0,80,0.00,,---,0.00,0.00,VWS V14.01,2013-03-18 06:56:00,
2013-03-18 03:00:00,17.1,11.7,30.41,West,269,0.0,0.0,79,0.00,,---,0.00,0.00,VWS V14.01,2013-03-18 07:00:00,
2013-03-18 03:01:00,17.1,11.7,30.41,West,269,0.0,0.0,79,0.00,,---,0.00,0.00,VWS V14.01,2013-03-18 07:01:00,
2013-03-18 03:06:00,17.0,11.3,30.41,West,269,0.0,0.0,78,0.00,,---,0.00,0.00,VWS V14.01,2013-03-18 07:06:00,
2013-03-18 03:11:00,16.9,11.2,30.41,West,269,0.0,0.0,78,0.00,,---,0.00,0.00,VWS V14.01,2013-03-18 07:11:00,
2013-03-18 03:16:00,16.7,11.3,30.41,West,269,0.0,0.0,79,0.00,,---,0.00,0.00,VWS V14.01,2013-03-18 07:16:00,
2013-03-18 03:21:00,16.6,11.2,30.41,West,269,0.0,0.0,79,0.00,,---,0.00,0.00,VWS V14.01,2013-03-18 07:21:00,
2013-03-18 03:26:00,16.4,11.0,30.42,West,269,0.0,0.0,79,0.00,,---,0.00,0.00,VWS V14.01,2013-03-18 07:26:00,
2013-03-18 03:30:00,16.3,11.2,30.41,West,269,0.0,0.0,80,0.00,,---,0.00,0.00,VWS V14.01,2013-03-18 07:30:00,
2013-03-18 03:31:00,16.3,11.2,30.41,West,269,0.0,0.0,80,0.00,,---,0.00,0.00,VWS V14.01,2013-03-18 07:31:00,
2013-03-18 03:36:00,16.4,11.3,30.41,West,269,0.0,0.0,80,0.00,,---,0.00,0.00,VWS V14.01,2013-03-18 07:36:00,
2013-03-18 03:41:00,16.4,10.8,30.41,West,269,0.0,0.0,78,0.00,,---,0.00,0.00,VWS V14.01,2013-03-18 07:41:00,
2013-03-18 03:45:00,16.4,10.5,30.41,West,269,0.0,0.0,77,0.00,,---,0.00,0.00,VWS V14.01,2013-03-18 07:45:00,
2013-03-18 03:50:00,16.3,10.7,30.41,West,269,0.0,0.0,78,0.00,,---,0.00,0.00,VWS V14.01,2013-03-18 07:50:00,
2013-03-18 03:55:00,16.1,10.8,30.41,West,269,0.0,0.0,79,0.00,,---,0.00,0.00,VWS V14.01,2013-03-18 07:55:00,
2013-03-18 04:00:00,15.9,10.8,30.41,West,269,0.0,0.0,80,0.00,,---,0.00,0.00,VWS V14.01,2013-03-18 08:00:00,
2013-03-18 04:13:00,15.8,10.7,30.41,West,269,0.0,0.0,80,0.00,,---,0.00,0.00,VWS V14.01,2013-03-18 08:13:00,
2013-03-18 04:18:00,15.5,10.2,30.41,West,269,0.0,0.0,79,0.00,,---,0.00,0.00,VWS V14.01,2013-03-18 08:18:00,
2013-03-18 04:23:00,15.4,10.4,30.41,West,269,0.0,0.0,80,0.00,,---,0.00,0.00,VWS V14.01,2013-03-18 08:23:00,
2013-03-18 04:28:00,15.3,10.8,30.41,West,269,0.0,0.0,82,0.00,,---,0.00,0.00,VWS V14.01,2013-03-18 08:28:00,
2013-03-18 04:30:00,15.4,11.2,30.41,West,269,0.0,0.0,83,0.00,,---,0.00,0.00,VWS V14.01,2013-03-18 08:30:00,
2013-03-18 04:33:00,15.4,11.2,30.41,West,269,0.0,0.0,83,0.00,,---,0.00,0.00,VWS V14.01,2013-03-18 08:33:00,
2013-03-18 04:38:00,15.4,10.9,30.41,West,269,0.0,0.0,82,0.00,,---,0.00,0.00,VWS V14.01,2013-03-18 08:38:00,
2013-03-18 04:43:00,15.6,10.8,30.41,West,269,0.0,0.0,81,0.00,,---,0.00,0.00,VWS V14.01,2013-03-18 08:43:00,
2013-03-18 04:58:00,15.6,10.5,30.41,West,269,0.0,0.0,80,0.00,,---,0.00,0.00,VWS V14.01,2013-03-18 08:58:00,
2013-03-18 05:00:00,15.7,9.2,30.41,West,269,1.0,3.0,75,0.00,,---,0.00,0.00,VWS V14.01,2013-03-18 09:00:00,
2013-03-18 05:03:00,15.5,9.3,30.42,West,269,0.0,1.0,76,0.00,,---,0.00,0.00,VWS V14.01,2013-03-18 09:03:00,
2013-03-18 05:08:00,15.2,9.9,30.42,West,269,0.0,1.0,79,0.00,,---,0.00,0.00,VWS V14.01,2013-03-18 09:08:00,
2013-03-18 05:13:00,15.0,10.2,30.42,West,269,0.0,1.0,81,0.00,,---,0.00,0.00,VWS V14.01,2013-03-18 09:13:00,
2013-03-18 05:18:00,14.9,10.4,30.42,West,269,0.0,1.0,82,0.00,,---,0.00,0.00,VWS V14.01,2013-03-18 09:18:00,
2013-03-18 05:23:00,14.9,10.1,30.42,West,269,0.0,1.0,81,0.00,,---,0.00,0.00,VWS V14.01,2013-03-18 09:23:00,
2013-03-18 05:28:00,14.7,9.9,30.42,West,269,0.0,1.0,81,0.00,,---,0.00,0.00,VWS V14.01,2013-03-18 09:28:00,
2013-03-18 05:30:00,14.6,10.1,30.42,West,269,0.0,1.0,82,0.00,,---,0.00,0.00,VWS V14.01,2013-03-18 09:30:00,
2013-03-18 05:33:00,14.6,10.1,30.42,West,269,0.0,0.0,82,0.00,,---,0.00,0.00,VWS V14.01,2013-03-18 09:33:00,
2013-03-18 05:38:00,14.5,9.5,30.42,West,269,0.0,0.0,80,0.00,,---,0.00,0.00,VWS V14.01,2013-03-18 09:38:00,
2013-03-18 05:43:00,14.4,9.6,30.43,West,269,0.0,0.0,81,0.00,,---,0.00,0.00,VWS V14.01,2013-03-18 09:43:00,
2013-03-18 05:48:00,14.2,9.7,30.43,West,269,0.0,0.0,82,0.00,,---,0.00,0.00,VWS V14.01,2013-03-18 09:48:00,
2013-03-18 05:53:00,14.1,9.6,30.43,West,269,0.0,0.0,82,0.00,,---,0.00,0.00,VWS V14.01,2013-03-18 09:53:00,
2013-03-18 05:58:00,14.0,9.5,30.43,West,269,0.0,0.0,82,0.00,,---,0.00,0.00,VWS V14.01,2013-03-18 09:58:00,
2013-03-18 06:00:00,14.1,9.6,30.43,West,269,0.0,0.0,82,0.00,,---,0.00,0.00,VWS V14.01,2013-03-18 10:00:00,
2013-03-18 06:03:00,14.2,9.7,30.43,West,269,0.0,0.0,82,0.00,,---,0.00,0.00,VWS V14.01,2013-03-18 10:03:00,
2013-03-18 06:08:00,14.3,9.6,30.44,West,269,0.0,0.0,81,0.00,,---,0.00,0.00,VWS V14.01,2013-03-18 10:08:00,
2013-03-18 06:13:00,14.3,9.3,30.44,West,269,0.0,0.0,80,0.00,,---,0.00,0.00,VWS V14.01,2013-03-18 10:13:00,
2013-03-18 06:18:00,14.4,9.4,30.44,West,269,0.0,0.0,80,0.00,,---,0.00,0.00,VWS V14.01,2013-03-18 10:18:00,
2013-03-18 06:23:00,14.4,9.1,30.44,West,269,0.0,0.0,79,0.00,,---,0.00,0.00,VWS V14.01,2013-03-18 10:23:00,
2013-03-18 06:28:00,14.5,9.2,30.45,West,269,0.0,0.0,79,0.00,,---,0.00,0.00,VWS V14.01,2013-03-18 10:28:00,
2013-03-18 06:30:00,14.5,9.5,30.45,West,269,0.0,0.0,80,0.00,,---,0.00,0.00,VWS V14.01,2013-03-18 10:30:00,
2013-03-18 06:33:00,14.5,9.5,30.45,West,269,0.0,0.0,80,0.00,,---,0.00,0.00,VWS V14.01,2013-03-18 10:33:00,
2013-03-18 06:38:00,14.4,9.1,30.45,West,269,0.0,0.0,79,0.00,,---,0.00,0.00,VWS V14.01,2013-03-18 10:38:00,
2013-03-18 06:43:00,14.1,9.4,30.45,West,269,0.0,0.0,81,0.00,,---,0.00,0.00,VWS V14.01,2013-03-18 10:43:00,
2013-03-18 06:48:00,14.0,9.3,30.46,West,269,0.0,0.0,81,0.00,,---,0.00,0.00,VWS V14.01,2013-03-18 10:48:00,
2013-03-18 06:53:00,13.9,9.2,30.46,West,269,0.0,0.0,81,0.00,,---,0.00,0.00,VWS V14.01,2013-03-18 10:53:00,
2013-03-18 06:58:00,13.8,9.1,30.46,West,269,0.0,0.0,81,0.00,,---,0.00,5.00,VWS V14.01,2013-03-18 10:58:00,
2013-03-18 07:00:00,13.6,8.9,30.47,West,269,0.0,0.0,81,0.00,,---,0.00,7.00,VWS V14.01,2013-03-18 11:00:00,
2013-03-18 07:03:00,13.6,8.9,30.47,West,269,0.0,0.0,81,0.00,,---,0.00,7.00,VWS V14.01,2013-03-18 11:03:00,
2013-03-18 07:08:00,13.6,9.1,30.46,West,269,0.0,0.0,82,0.00,,---,0.00,12.00,VWS V14.01,2013-03-18 11:08:00,
2013-03-18 07:13:00,13.6,9.1,30.47,West,269,0.0,0.0,82,0.00,,---,0.00,18.00,VWS V14.01,2013-03-18 11:13:00,
2013-03-18 07:18:00,13.7,9.2,30.47,West,269,0.0,0.0,82,0.00,,---,0.00,21.00,VWS V14.01,2013-03-18 11:18:00,
2013-03-18 07:23:00,13.8,9.3,30.47,West,269,0.0,0.0,82,0.00,,---,0.00,30.00,VWS V14.01,2013-03-18 11:23:00,
2013-03-18 07:28:00,14.0,9.8,30.47,West,269,0.0,0.0,83,0.00,,---,0.00,35.00,VWS V14.01,2013-03-18 11:28:00,
2013-03-18 07:30:00,14.3,10.1,30.47,West,269,0.0,0.0,83,0.00,,---,0.00,40.00,VWS V14.01,2013-03-18 11:30:00,
2013-03-18 07:33:00,14.4,10.2,30.47,West,269,0.0,0.0,83,0.00,,---,0.00,40.00,VWS V14.01,2013-03-18 11:33:00,
2013-03-18 07:38:00,14.9,10.7,30.47,West,269,0.0,0.0,83,0.00,,---,0.00,53.00,VWS V14.01,2013-03-18 11:38:00,
2013-03-18 07:43:00,15.5,11.3,30.47,West,269,0.0,0.0,83,0.00,,---,0.00,69.00,VWS V14.01,2013-03-18 11:43:00,
2013-03-18 07:48:00,16.0,11.5,30.47,West,269,0.0,0.0,82,0.00,,---,0.00,83.00,VWS V14.01,2013-03-18 11:48:00,
2013-03-18 07:53:00,16.6,11.2,30.47,West,269,0.0,0.0,79,0.00,,---,0.00,107.00,VWS V14.01,2013-03-18 11:53:00,
2013-03-18 07:58:00,17.2,11.2,30.47,West,269,0.0,0.0,77,0.00,,---,0.00,116.00,VWS V14.01,2013-03-18 11:58:00,
2013-03-18 08:00:00,17.9,11.0,30.47,West,269,0.0,0.0,74,0.00,,---,0.00,120.00,VWS V14.01,2013-03-18 12:00:00,
2013-03-18 08:03:00,18.1,10.9,30.47,West,269,0.0,0.0,73,0.00,,---,0.00,121.00,VWS V14.01,2013-03-18 12:03:00,
2013-03-18 08:08:00,18.8,10.6,30.47,NE,34,0.0,0.0,70,0.00,,---,0.00,155.00,VWS V14.01,2013-03-18 12:08:00,
2013-03-18 08:13:00,19.4,10.9,30.47,ENE,62,0.0,4.0,69,0.00,,---,0.00,153.00,VWS V14.01,2013-03-18 12:13:00,
2013-03-18 08:18:00,19.8,10.6,30.47,ENE,62,0.0,4.0,67,0.00,,---,0.00,128.00,VWS V14.01,2013-03-18 12:18:00,
2013-03-18 08:23:00,20.2,11.4,30.47,ENE,62,0.0,4.0,68,0.00,,---,0.00,185.00,VWS V14.01,2013-03-18 12:23:00,
2013-03-18 08:28:00,20.6,11.4,30.47,ENE,75,0.0,4.0,67,0.00,,---,0.00,227.00,VWS V14.01,2013-03-18 12:28:00,
2013-03-18 08:30:00,21.0,10.8,30.47,North,355,0.0,4.0,64,0.00,,---,0.00,232.00,VWS V14.01,2013-03-18 12:30:00,
2013-03-18 08:33:00,21.1,10.8,30.47,North,355,0.0,0.0,64,0.00,,---,0.00,234.00,VWS V14.01,2013-03-18 12:33:00,
2013-03-18 08:38:00,21.6,10.6,30.47,North,360,2.0,2.0,62,0.00,,---,0.00,258.00,VWS V14.01,2013-03-18 12:38:00,
2013-03-18 08:43:00,22.2,10.8,30.47,NE,41,0.0,4.0,61,0.00,,---,0.00,221.00,VWS V14.01,2013-03-18 12:43:00,
2013-03-18 08:48:00,22.5,10.4,30.47,NNE,13,0.0,4.0,59,0.00,,---,0.00,246.00,VWS V14.01,2013-03-18 12:48:00,
2013-03-18 08:53:00,22.9,10.0,30.47,NE,52,0.0,4.0,57,0.00,,---,0.00,283.00,VWS V14.01,2013-03-18 12:53:00,
2013-03-18 08:58:00,23.1,10.1,30.47,NE,41,3.0,4.0,57,0.00,,---,0.00,332.00,VWS V14.01,2013-03-18 12:58:00,
2013-03-18 09:00:00,23.5,10.1,30.46,ENE,65,0.0,4.0,56,0.00,,---,0.00,278.00,VWS V14.01,2013-03-18 13:00:00,
2013-03-18 09:03:00,23.5,9.7,30.46,ENE,63,2.0,3.0,55,0.00,,---,0.00,295.00,VWS V14.01,2013-03-18 13:03:00,
2013-03-18 09:08:00,24.0,9.8,30.46,ENE,69,2.0,6.0,54,0.00,,---,0.00,343.00,VWS V14.01,2013-03-18 13:08:00,
2013-03-18 09:13:00,24.5,10.2,30.46,ENE,60,2.0,6.0,54,0.00,,---,0.00,341.00,VWS V14.01,2013-03-18 13:13:00,
2013-03-18 09:18:00,25.2,8.7,30.45,East,99,3.0,6.0,49,0.00,,---,0.00,359.00,VWS V14.01,2013-03-18 13:18:00,
2013-03-18 09:23:00,25.3,8.8,30.45,East,91,2.0,7.0,49,0.00,,---,0.00,318.00,VWS V14.01,2013-03-18 13:23:00,
2013-03-18 09:28:00,25.6,9.6,30.45,NE,52,3.0,7.0,50,0.00,,---,0.00,346.00,VWS V14.01,2013-03-18 13:28:00,
2013-03-18 09:30:00,25.9,9.4,30.45,East,86,0.0,7.0,49,0.00,,---,0.00,364.00,VWS V14.01,2013-03-18 13:30:00,
2013-03-18 09:33:00,25.9,8.9,30.45,East,92,2.0,6.0,48,0.00,,---,0.00,366.00,VWS V14.01,2013-03-18 13:33:00,
2013-03-18 09:38:00,26.1,9.1,30.44,East,93,3.0,8.0,48,0.00,,---,0.00,327.00,VWS V14.01,2013-03-18 13:38:00,
2013-03-18 09:43:00,26.2,8.7,30.44,East,100,3.0,8.0,47,0.00,,---,0.00,339.00,VWS V14.01,2013-03-18 13:43:00,
2013-03-18 09:48:00,26.5,8.5,30.44,NE,50,1.0,8.0,46,0.00,,---,0.00,364.00,VWS V14.01,2013-03-18 13:48:00,
2013-03-18 09:53:00,26.9,9.9,30.44,ENE,62,2.0,8.0,48,0.00,,---,0.00,359.00,VWS V14.01,2013-03-18 13:53:00,
2013-03-18 09:58:00,27.3,9.3,30.44,ENE,57,0.0,8.0,46,0.00,,---,0.00,373.00,VWS V14.01,2013-03-18 13:58:00,
2013-03-18 10:00:00,27.5,9.0,30.44,ENE,74,0.0,8.0,45,0.00,,---,0.00,404.00,VWS V14.01,2013-03-18 14:00:00,
2013-03-18 10:03:00,27.6,9.5,30.44,ENE,74,3.0,4.0,46,0.00,,---,0.00,424.00,VWS V14.01,2013-03-18 14:03:00,
2013-03-18 10:08:00,27.8,8.7,30.43,ENE,74,2.0,4.0,44,0.00,,---,0.00,376.00,VWS V14.01,2013-03-18 14:08:00,
2013-03-18 10:13:00,28.1,10.5,30.43,ENE,61,2.0,4.0,47,0.00,,---,0.00,454.00,VWS V14.01,2013-03-18 14:13:00,
2013-03-18 10:18:00,28.7,9.1,30.43,ESE,105,3.0,7.0,43,0.00,,---,0.00,517.00,VWS V14.01,2013-03-18 14:18:00,
2013-03-18 10:23:00,29.0,9.3,30.42,NE,44,0.0,7.0,43,0.00,,---,0.00,431.00,VWS V14.01,2013-03-18 14:23:00,
2013-03-18 10:28:00,29.2,9.5,30.43,ENE,62,4.0,7.0,43,0.00,,---,0.00,494.00,VWS V14.01,2013-03-18 14:28:00,
2013-03-18 10:30:00,29.5,8.2,30.42,East,79,3.0,7.0,40,0.00,,---,0.00,534.00,VWS V14.01,2013-03-18 14:30:00,
2013-03-18 10:33:00,29.6,8.3,30.42,East,86,3.0,7.0,40,0.00,,---,0.00,527.00,VWS V14.01,2013-03-18 14:33:00,
2013-03-18 10:38:00,29.7,6.6,30.42,ENE,78,4.0,7.0,37,0.00,,---,0.00,415.00,VWS V14.01,2013-03-18 14:38:00,
2013-03-18 10:43:00,29.6,6.5,30.41,ENE,69,3.0,7.0,37,0.00,,---,0.00,450.00,VWS V14.01,2013-03-18 14:43:00,
2013-03-18 10:48:00,30.0,7.5,30.42,ESE,107,1.0,8.0,38,0.00,,---,0.00,589.00,VWS V14.01,2013-03-18 14:48:00,
2013-03-18 10:53:00,30.9,8.3,30.41,ENE,74,2.0,8.0,38,0.00,,---,0.00,661.00,VWS V14.01,2013-03-18 14:53:00,
2013-03-18 10:58:00,31.4,7.6,30.41,ENE,71,0.0,8.0,36,0.00,,---,0.00,671.00,VWS V14.01,2013-03-18 14:58:00,
2013-03-18 11:00:00,31.7,7.8,30.41,SE,126,7.0,8.0,36,0.00,,---,0.00,677.00,VWS V14.01,2013-03-18 15:00:00,
2013-03-18 11:03:00,31.8,7.3,30.41,ENE,62,3.0,8.0,35,0.00,,---,0.00,645.00,VWS V14.01,2013-03-18 15:03:00,
2013-03-18 11:08:00,32.4,8.4,30.41,East,96,5.0,8.0,36,0.00,,---,0.00,622.00,VWS V14.01,2013-03-18 15:08:00,
2013-03-18 11:13:00,33.0,8.4,30.41,East,98,5.0,8.0,35,0.00,,---,0.00,654.00,VWS V14.01,2013-03-18 15:13:00,
2013-03-18 11:18:00,33.2,8.5,30.41,ESE,105,5.0,8.0,35,0.00,,---,0.00,628.00,VWS V14.01,2013-03-18 15:18:00,
2013-03-18 11:23:00,33.1,6.5,30.41,East,86,5.0,8.0,32,0.00,,---,0.00,649.00,VWS V14.01,2013-03-18 15:23:00,
2013-03-18 11:28:00,32.7,7.4,30.41,ESE,122,4.0,8.0,34,0.00,,---,0.00,671.00,VWS V14.01,2013-03-18 15:28:00,
2013-03-18 11:30:00,33.2,7.9,30.41,ESE,102,0.0,9.0,34,0.00,,---,0.00,679.00,VWS V14.01,2013-03-18 15:30:00,
2013-03-18 11:33:00,33.2,7.2,30.41,ENE,57,2.0,2.0,33,0.00,,---,0.00,707.00,VWS V14.01,2013-03-18 15:33:00,
2013-03-18 11:38:00,33.7,8.3,30.40,NE,53,3.0,8.0,34,0.00,,---,0.00,694.00,VWS V14.01,2013-03-18 15:38:00,
2013-03-18 11:43:00,33.8,7.1,30.40,ESE,105,1.0,8.0,32,0.00,,---,0.00,534.00,VWS V14.01,2013-03-18 15:43:00,
2013-03-18 11:48:00,33.8,8.4,30.40,SE,130,4.0,8.0,34,0.00,,---,0.00,619.00,VWS V14.01,2013-03-18 15:48:00,
2013-03-18 11:53:00,34.5,9.0,30.40,ESE,109,0.0,8.0,34,0.00,,---,0.00,487.00,VWS V14.01,2013-03-18 15:53:00,
2013-03-18 11:58:00,35.0,8.8,30.40,ESE,105,4.0,8.0,33,0.00,,---,0.00,497.00,VWS V14.01,2013-03-18 15:58:00,
2013-03-18 12:00:00,35.1,8.2,30.40,ESE,123,2.0,8.0,32,0.00,,---,0.00,497.00,VWS V14.01,2013-03-18 16:00:00,
2013-03-18 12:03:00,35.1,8.9,30.40,SE,129,2.0,4.0,33,0.00,,---,0.00,527.00,VWS V14.01,2013-03-18 16:03:00,
2013-03-18 12:08:00,34.9,7.3,30.40,SSE,165,0.0,4.0,31,0.00,,---,0.00,550.00,VWS V14.01,2013-03-18 16:08:00,
2013-03-18 12:13:00,34.8,8.6,30.40,ESE,122,3.0,4.0,33,0.00,,---,0.00,577.00,VWS V14.01,2013-03-18 16:13:00,
2013-03-18 12:18:00,34.7,9.9,30.40,SE,137,0.0,4.0,35,0.00,,---,0.00,628.00,VWS V14.01,2013-03-18 16:18:00,
2013-03-18 12:23:00,34.5,7.7,30.40,SW,230,0.0,4.0,32,0.00,,---,0.00,650.00,VWS V14.01,2013-03-18 16:23:00,
2013-03-18 12:28:00,34.4,9.6,30.40,WNW,298,2.0,4.0,35,0.00,,---,0.00,594.00,VWS V14.01,2013-03-18 16:28:00,
2013-03-18 12:30:00,34.8,9.9,30.40,West,265,6.0,6.0,35,0.00,,---,0.00,571.00,VWS V14.01,2013-03-18 16:30:00,
2013-03-18 12:33:00,34.9,8.7,30.40,WSW,246,4.0,6.0,33,0.00,,---,0.00,554.00,VWS V14.01,2013-03-18 16:33:00,
2013-03-18 12:38:00,34.9,8.7,30.39,SE,132,2.0,6.0,33,0.00,,---,0.00,526.00,VWS V14.01,2013-03-18 16:38:00,
2013-03-18 12:43:00,35.2,9.7,30.39,WNW,290,0.0,6.0,34,0.00,,---,0.00,485.00,VWS V14.01,2013-03-18 16:43:00,
2013-03-18 12:48:00,35.2,7.6,30.39,WNW,288,0.0,6.0,31,0.00,,---,0.00,497.00,VWS V14.01,2013-03-18 16:48:00,
2013-03-18 12:53:00,35.2,8.3,30.39,SSW,211,0.0,6.0,32,0.00,,---,0.00,524.00,VWS V14.01,2013-03-18 16:53:00,
2013-03-18 12:58:00,35.2,8.3,30.39,SW,236,5.0,6.0,32,0.00,,---,0.00,473.00,VWS V14.01,2013-03-18 16:58:00,
2013-03-18 13:00:00,34.7,8.6,30.39,WNW,297,0.0,6.0,33,0.00,,---,0.00,457.00,VWS V14.01,2013-03-18 17:00:00,
2013-03-18 13:03:00,34.7,9.2,30.39,WNW,297,0.0,0.0,34,0.00,,---,0.00,450.00,VWS V14.01,2013-03-18 17:03:00,
2013-03-18 13:08:00,35.3,11.0,30.39,WNW,293,2.0,5.0,36,0.00,,---,0.00,483.00,VWS V14.01,2013-03-18 17:08:00,
2013-03-18 13:13:00,35.7,9.4,30.39,WSW,256,1.0,5.0,33,0.00,,---,0.00,471.00,VWS V14.01,2013-03-18 17:13:00,
2013-03-18 13:18:00,35.7,8.8,30.38,WSW,256,3.0,5.0,32,0.00,,---,0.00,483.00,VWS V14.01,2013-03-18 17:18:00,
2013-03-18 13:23:00,35.7,10.8,30.37,SE,132,0.0,5.0,35,0.00,,---,0.00,496.00,VWS V14.01,2013-03-18 17:23:00,
2013-03-18 13:28:00,36.1,10.5,30.37,SW,228,3.0,5.0,34,0.00,,---,0.00,513.00,VWS V14.01,2013-03-18 17:28:00,
2013-03-18 13:30:00,35.9,8.9,30.37,WNW,286,0.0,5.0,32,0.00,,---,0.00,548.00,VWS V14.01,2013-03-18 17:30:00,
2013-03-18 13:33:00,35.9,8.9,30.37,WNW,286,2.0,2.0,32,0.00,,---,0.00,552.00,VWS V14.01,2013-03-18 17:33:00,
2013-03-18 13:38:00,35.9,10.3,30.36,SSW,202,0.0,4.0,34,0.00,,---,0.00,578.00,VWS V14.01,2013-03-18 17:38:00,
2013-03-18 13:43:00,36.3,9.3,30.36,West,269,0.0,5.0,32,0.00,,---,0.00,538.00,VWS V14.01,2013-03-18 17:43:00,
2013-03-18 13:48:00,36.7,11.0,30.36,West,269,0.0,5.0,34,0.00,,---,0.00,494.00,VWS V14.01,2013-03-18 17:48:00,
2013-03-18 13:53:00,36.8,9.7,30.35,NE,46,0.0,5.0,32,0.00,,---,0.00,499.00,VWS V14.01,2013-03-18 17:53:00,
2013-03-18 13:58:00,36.6,8.8,30.35,NNE,20,0.0,5.0,31,0.00,,---,0.00,487.00,VWS V14.01,2013-03-18 17:58:00,
2013-03-18 14:00:00,36.8,11.1,30.35,East,101,3.0,5.0,34,0.00,,---,0.00,464.00,VWS V14.01,2013-03-18 18:00:00,
2013-03-18 14:03:00,37.0,11.9,30.35,East,101,0.0,3.0,35,0.00,,---,0.00,455.00,VWS V14.01,2013-03-18 18:03:00,
2013-03-18 14:08:00,37.4,11.6,30.34,SSE,159,0.0,4.0,34,0.00,,---,0.00,424.00,VWS V14.01,2013-03-18 18:08:00,
2013-03-18 14:13:00,37.5,10.3,30.34,NNW,338,0.0,4.0,32,0.00,,---,0.00,413.00,VWS V14.01,2013-03-18 18:13:00,
2013-03-18 14:18:00,37.3,8.7,30.34,SSW,213,0.0,4.0,30,0.00,,---,0.00,394.00,VWS V14.01,2013-03-18 18:18:00,
2013-03-18 14:23:00,37.4,11.6,30.33,WSW,253,2.0,4.0,34,0.00,,---,0.00,399.00,VWS V14.01,2013-03-18 18:23:00,
2013-03-18 14:28:00,37.5,10.3,30.33,WSW,253,0.0,4.0,32,0.00,,---,0.00,385.00,VWS V14.01,2013-03-18 18:28:00,
2013-03-18 14:30:00,37.5,10.3,30.33,SW,232,5.0,10.0,32,0.00,,---,0.00,352.00,VWS V14.01,2013-03-18 18:30:00,
2013-03-18 14:33:00,37.6,9.7,30.33,WNW,303,3.0,5.0,31,0.00,,---,0.00,348.00,VWS V14.01,2013-03-18 18:33:00,
2013-03-18 14:38:00,37.8,9.9,30.33,West,259,3.0,7.0,31,0.00,,---,0.00,323.00,VWS V14.01,2013-03-18 18:38:00,
2013-03-18 14:43:00,37.8,9.9,30.33,South,174,0.0,7.0,31,0.00,,---,0.00,290.00,VWS V14.01,2013-03-18 18:43:00,
2013-03-18 14:48:00,37.6,9.0,30.33,South,188,1.0,7.0,30,0.00,,---,0.00,278.00,VWS V14.01,2013-03-18 18:48:00,
2013-03-18 14:53:00,37.4,9.5,30.33,ESE,116,2.0,7.0,31,0.00,,---,0.00,269.00,VWS V14.01,2013-03-18 18:53:00,
2013-03-18 14:58:00,37.2,8.6,30.33,SSE,157,3.0,7.0,30,0.00,,---,0.00,258.00,VWS V14.01,2013-03-18 18:58:00,
2013-03-18 15:00:00,37.1,10.0,30.33,SSE,157,0.0,7.0,32,0.00,,---,0.00,260.00,VWS V14.01,2013-03-18 19:00:00,
2013-03-18 15:03:00,37.0,9.2,30.33,SSE,157,0.0,2.0,31,0.00,,---,0.00,255.00,VWS V14.01,2013-03-18 19:03:00,
2013-03-18 15:08:00,36.9,9.8,30.33,SE,126,4.0,4.0,32,0.00,,---,0.00,230.00,VWS V14.01,2013-03-18 19:08:00,
2013-03-18 15:13:00,36.7,9.6,30.32,SSW,209,0.0,5.0,32,0.00,,---,0.00,214.00,VWS V14.01,2013-03-18 19:13:00,
2013-03-18 15:18:00,36.5,8.8,30.32,SE,142,0.0,6.0,31,0.00,,---,0.00,211.00,VWS V14.01,2013-03-18 19:18:00,
2013-03-18 15:23:00,36.4,8.7,30.31,ESE,117,3.0,6.0,31,0.00,,---,0.00,209.00,VWS V14.01,2013-03-18 19:23:00,
2013-03-18 15:28:00,36.4,9.4,30.30,SSE,157,0.0,6.0,32,0.00,,---,0.00,200.00,VWS V14.01,2013-03-18 19:28:00,
2013-03-18 15:30:00,36.5,9.5,30.30,ESE,109,0.0,6.0,32,0.00,,---,0.00,188.00,VWS V14.01,2013-03-18 19:30:00,
2013-03-18 15:33:00,36.5,9.5,30.30,SE,144,0.0,2.0,32,0.00,,---,0.00,186.00,VWS V14.01,2013-03-18 19:33:00,
2013-03-18 15:38:00,36.5,9.5,30.29,SE,127,0.0,5.0,32,0.00,,---,0.00,179.00,VWS V14.01,2013-03-18 19:38:00,
2013-03-18 15:43:00,36.7,11.0,30.28,ESE,118,1.0,5.0,34,0.00,,---,0.00,176.00,VWS V14.01,2013-03-18 19:43:00,
2013-03-18 15:48:00,36.9,10.5,30.28,East,99,7.0,7.0,33,0.00,,---,0.00,165.00,VWS V14.01,2013-03-18 19:48:00,
2013-03-18 15:53:00,36.5,9.5,30.28,ESE,123,0.0,8.0,32,0.00,,---,0.00,149.00,VWS V14.01,2013-03-18 19:53:00,
2013-03-18 15:58:00,36.4,10.7,30.28,East,90,1.0,8.0,34,0.00,,---,0.00,137.00,VWS V14.01,2013-03-18 19:58:00,
2013-03-18 16:00:00,36.5,10.1,30.29,SE,146,2.0,8.0,33,0.00,,---,0.00,130.00,VWS V14.01,2013-03-18 20:00:00,
2013-03-18 16:03:00,36.5,10.1,30.29,East,83,8.0,8.0,33,0.00,,---,0.00,128.00,VWS V14.01,2013-03-18 20:03:00,
2013-03-18 16:08:00,36.3,10.0,30.29,ESE,107,3.0,8.0,33,0.00,,---,0.00,116.00,VWS V14.01,2013-03-18 20:08:00,
2013-03-18 16:13:00,36.0,9.0,30.29,ESE,107,9.0,9.0,32,0.00,,---,0.00,107.00,VWS V14.01,2013-03-18 20:13:00,
2013-03-18 16:18:00,35.6,8.7,30.29,East,101,3.0,9.0,32,0.00,,---,0.00,88.00,VWS V14.01,2013-03-18 20:18:00,
2013-03-18 16:23:00,35.4,9.8,30.29,East,83,0.0,9.0,34,0.00,,---,0.00,86.00,VWS V14.01,2013-03-18 20:23:00,
2013-03-18 16:28:00,35.2,9.0,30.29,East,88,3.0,9.0,33,0.00,,---,0.00,91.00,VWS V14.01,2013-03-18 20:28:00,
2013-03-18 16:30:00,35.2,9.7,30.29,ENE,75,4.0,9.0,34,0.00,,---,0.00,84.00,VWS V14.01,2013-03-18 20:30:00,
2013-03-18 16:33:00,35.2,9.0,30.29,ESE,109,2.0,4.0,33,0.00,,---,0.00,83.00,VWS V14.01,2013-03-18 20:33:00,
2013-03-18 16:38:00,35.1,8.9,30.29,ESE,109,1.0,5.0,33,0.00,,---,0.00,74.00,VWS V14.01,2013-03-18 20:38:00,
2013-03-18 16:43:00,35.0,8.8,30.29,ESE,109,2.0,5.0,33,0.00,,---,0.00,67.00,VWS V14.01,2013-03-18 20:43:00,
2013-03-18 16:48:00,35.0,8.8,30.29,SE,133,1.0,5.0,33,0.00,,---,0.00,63.00,VWS V14.01,2013-03-18 20:48:00,
2013-03-18 16:53:00,34.9,8.7,30.28,ESE,104,0.0,5.0,33,0.00,,---,0.00,53.00,VWS V14.01,2013-03-18 20:53:00,
2013-03-18 16:58:00,34.9,9.4,30.28,SE,138,0.0,5.0,34,0.00,,---,0.00,53.00,VWS V14.01,2013-03-18 20:58:00,
2013-03-18 17:00:00,34.9,9.4,30.28,ESE,111,2.0,5.0,34,0.00,,---,0.00,44.00,VWS V14.01,2013-03-18 21:00:00,
2013-03-18 17:03:00,34.9,9.4,30.28,ESE,111,2.0,3.0,34,0.00,,---,0.00,44.00,VWS V14.01,2013-03-18 21:03:00,
2013-03-18 17:08:00,34.8,9.9,30.28,SE,130,0.0,3.0,35,0.00,,---,0.00,39.00,VWS V14.01,2013-03-18 21:08:00,
2013-03-18 17:12:00,34.8,9.9,30.28,East,98,0.0,4.0,35,0.00,,---,0.00,39.00,VWS V14.01,2013-03-18 21:12:00,
2013-03-18 17:18:00,34.7,9.9,30.27,ESE,111,0.0,5.0,35,0.00,,---,0.00,37.00,VWS V14.01,2013-03-18 21:18:00,
2013-03-18 17:23:00,34.4,9.6,30.27,ESE,103,2.0,5.0,35,0.00,,---,0.00,39.00,VWS V14.01,2013-03-18 21:23:00,
2013-03-18 17:28:00,34.4,8.9,30.27,East,92,7.0,7.0,34,0.00,,---,0.00,39.00,VWS V14.01,2013-03-18 21:28:00,
2013-03-18 17:30:00,34.2,8.8,30.27,ESE,107,0.0,7.0,34,0.00,,---,0.00,32.00,VWS V14.01,2013-03-18 21:30:00,
2013-03-18 17:33:00,34.2,9.4,30.27,East,93,3.0,3.0,35,0.00,,---,0.00,28.00,VWS V14.01,2013-03-18 21:33:00,
2013-03-18 17:38:00,34.1,10.0,30.26,SE,127,4.0,8.0,36,0.00,,---,0.00,25.00,VWS V14.01,2013-03-18 21:38:00,
2013-03-18 17:43:00,33.9,14.3,30.26,ESE,112,3.0,8.0,44,0.00,,---,0.00,25.00,VWS V14.01,2013-03-18 21:43:00,
2013-03-18 17:48:00,33.4,14.9,30.26,East,82,3.0,9.0,46,0.00,,---,0.00,26.00,VWS V14.01,2013-03-18 21:48:00,
2013-03-18 17:53:00,33.0,13.5,30.26,SE,142,1.0,9.0,44,0.00,,---,0.00,32.00,VWS V14.01,2013-03-18 21:53:00,
2013-03-18 17:58:00,32.8,13.8,30.25,SE,134,0.0,13.0,45,0.00,,---,0.00,30.00,VWS V14.01,2013-03-18 21:58:00,
2013-03-18 18:00:00,32.8,13.3,30.25,ESE,114,0.0,13.0,44,0.00,,---,0.00,25.00,VWS V14.01,2013-03-18 22:00:00,
2013-03-18 18:03:00,32.7,13.2,30.25,ESE,114,0.0,0.0,44,0.00,,---,0.00,23.00,VWS V14.01,2013-03-18 22:03:00,
2013-03-18 18:08:00,32.8,13.8,30.25,SSE,158,2.0,6.0,45,0.00,,---,0.00,19.00,VWS V14.01,2013-03-18 22:08:00,
2013-03-18 18:13:00,32.7,13.7,30.25,SE,140,5.0,6.0,45,0.00,,---,0.00,16.00,VWS V14.01,2013-03-18 22:13:00,
2013-03-18 18:18:00,32.6,14.1,30.25,ESE,109,7.0,9.0,46,0.00,,---,0.00,12.00,VWS V14.01,2013-03-18 22:18:00,
2013-03-18 18:23:00,32.6,14.1,30.25,East,101,0.0,11.0,46,0.00,,---,0.00,11.00,VWS V14.01,2013-03-18 22:23:00,
2013-03-18 18:28:00,32.5,14.5,30.25,SSW,201,0.0,11.0,47,0.00,,---,0.00,7.00,VWS V14.01,2013-03-18 22:28:00,
2013-03-18 18:30:00,32.5,14.5,30.25,East,99,6.0,11.0,47,0.00,,---,0.00,7.00,VWS V14.01,2013-03-18 22:30:00,
2013-03-18 18:33:00,32.5,14.5,30.24,ESE,115,0.0,6.0,47,0.00,,---,0.00,5.00,VWS V14.01,2013-03-18 22:33:00,
2013-03-18 18:38:00,32.4,14.4,30.24,ESE,113,0.0,8.0,47,0.00,,---,0.00,5.00,VWS V14.01,2013-03-18 22:38:00,
2013-03-18 18:43:00,32.3,14.3,30.24,East,87,0.0,8.0,47,0.00,,---,0.00,0.00,VWS V14.01,2013-03-18 22:43:00,
2013-03-18 18:48:00,32.3,14.3,30.24,SSE,153,2.0,8.0,47,0.00,,---,0.00,0.00,VWS V14.01,2013-03-18 22:48:00,
2013-03-18 18:53:00,32.3,13.9,30.24,SSE,152,0.0,9.0,46,0.00,,---,0.00,0.00,VWS V14.01,2013-03-18 22:53:00,
2013-03-18 18:58:00,32.3,13.9,30.23,NNW,332,0.0,9.0,46,0.00,,---,0.00,0.00,VWS V14.01,2013-03-18 22:58:00,
2013-03-18 19:00:00,32.3,13.9,30.23,ESE,119,0.0,9.0,46,0.00,,---,0.00,0.00,VWS V14.01,2013-03-18 23:00:00,
2013-03-18 19:03:00,32.3,14.3,30.23,ESE,119,0.0,0.0,47,0.00,,---,0.00,0.00,VWS V14.01,2013-03-18 23:03:00,
2013-03-18 19:08:00,32.3,14.3,30.23,ESE,119,0.0,1.0,47,0.00,,---,0.00,0.00,VWS V14.01,2013-03-18 23:08:00,
2013-03-18 19:13:00,31.9,17.2,30.22,ESE,115,0.0,18.0,54,0.00,,---,0.00,0.00,VWS V14.01,2013-03-18 23:13:00,
2013-03-18 19:18:00,31.4,17.1,30.21,East,87,2.0,18.0,55,0.00,,---,0.00,0.00,VWS V14.01,2013-03-18 23:18:00,
2013-03-18 19:23:00,31.3,16.2,30.21,ENE,74,7.0,18.0,53,0.00,,---,0.00,0.00,VWS V14.01,2013-03-18 23:23:00,
2013-03-18 19:28:00,31.5,15.0,30.22,East,94,9.0,18.0,50,0.00,,---,0.00,0.00,VWS V14.01,2013-03-18 23:28:00,
2013-03-18 19:30:00,31.5,15.5,30.22,SSW,194,0.0,18.0,51,0.00,,---,0.00,0.00,VWS V14.01,2013-03-18 23:30:00,
2013-03-18 19:33:00,31.5,15.5,30.22,South,187,8.0,13.0,51,0.00,,---,0.00,0.00,VWS V14.01,2013-03-18 23:33:00,
2013-03-18 19:38:00,31.5,15.9,30.22,East,100,0.0,13.0,52,0.00,,---,0.00,0.00,VWS V14.01,2013-03-18 23:38:00,
2013-03-18 19:43:00,31.4,17.1,30.22,South,191,7.0,13.0,55,0.00,,---,0.00,0.00,VWS V14.01,2013-03-18 23:43:00,
2013-03-18 19:48:00,31.1,17.2,30.22,ESE,115,1.0,13.0,56,0.00,,---,0.00,0.00,VWS V14.01,2013-03-18 23:48:00,
2013-03-18 19:53:00,30.9,18.3,30.22,ENE,74,0.0,13.0,59,0.00,,---,0.00,0.00,VWS V14.01,2013-03-18 23:53:00,
2013-03-18 19:58:00,30.6,19.1,30.22,SSE,148,6.0,13.0,62,0.00,,---,0.00,0.00,VWS V14.01,2013-03-18 23:58:00,
2013-03-18 20:00:00,30.4,19.7,30.22,West,267,0.0,13.0,64,0.00,,---,0.00,0.00,VWS V14.01,2013-03-19 00:00:00,
2013-03-18 20:03:00,30.3,19.6,30.23,West,267,0.0,2.0,64,0.00,,---,0.00,0.00,VWS V14.01,2013-03-19 00:03:00,
2013-03-18 20:08:00,30.1,20.5,30.23,West,261,0.0,3.0,67,0.00,,---,0.00,0.00,VWS V14.01,2013-03-19 00:08:00,
2013-03-18 20:13:00,29.7,21.1,30.23,West,264,5.0,5.0,70,0.00,,---,0.00,0.00,VWS V14.01,2013-03-19 00:13:00,
2013-03-18 20:18:00,29.3,21.7,30.23,SSW,205,0.0,5.0,73,0.00,,---,0.00,0.00,VWS V14.01,2013-03-19 00:18:00,
2013-03-18 20:23:00,29.1,21.9,30.23,SW,227,2.0,7.0,74,0.00,,---,0.00,0.00,VWS V14.01,2013-03-19 00:23:00,
2013-03-18 20:28:00,28.7,23.0,30.23,ESE,112,0.0,7.0,79,0.00,,---,0.00,0.00,VWS V14.01,2013-03-19 00:28:00,
2013-03-18 20:30:00,28.5,23.4,30.23,SW,215,0.0,7.0,81,0.00,,---,0.00,0.00,VWS V14.01,2013-03-19 00:30:00,
2013-03-18 20:33:00,28.4,23.3,30.23,SW,215,0.0,0.0,81,0.00,,---,0.00,0.00,VWS V14.01,2013-03-19 00:33:00,
2013-03-18 20:38:00,28.1,23.6,30.23,East,88,0.0,4.0,83,0.00,,---,0.00,0.00,VWS V14.01,2013-03-19 00:38:00,
2013-03-18 20:43:00,27.9,23.7,30.22,East,98,0.0,6.0,84,0.00,,---,0.00,0.00,VWS V14.01,2013-03-19 00:43:00,
2013-03-18 20:48:00,27.8,23.6,30.22,SSE,164,0.0,6.0,84,0.00,,---,0.00,0.00,VWS V14.01,2013-03-19 00:48:00,
2013-03-18 20:53:00,27.6,23.7,30.21,SSE,164,0.0,6.0,85,0.00,,---,0.00,0.00,VWS V14.01,2013-03-19 00:53:00,
2013-03-18 20:58:00,27.6,24.0,30.21,NW,325,1.0,6.0,86,0.00,,---,0.00,0.00,VWS V14.01,2013-03-19 00:58:00,
2013-03-18 21:00:00,27.6,24.0,30.21,East,79,1.0,10.0,86,0.00,,---,0.00,0.00,VWS V14.01,2013-03-19 01:00:00,
2013-03-18 21:03:00,27.6,24.0,30.21,East,79,0.0,1.0,86,0.00,,---,0.00,0.00,VWS V14.01,2013-03-19 01:03:00,
2013-03-18 21:08:00,27.6,24.0,30.20,East,90,2.0,11.0,86,0.00,,---,0.00,0.00,VWS V14.01,2013-03-19 01:08:00,
2013-03-18 21:13:00,27.5,24.1,30.20,ESE,117,2.0,11.0,87,0.00,,---,0.00,0.00,VWS V14.01,2013-03-19 01:13:00,
2013-03-18 21:18:00,27.4,24.3,30.19,SE,134,5.0,11.0,88,0.00,,---,0.00,0.00,VWS V14.01,2013-03-19 01:18:00,
2013-03-18 21:23:00,27.4,24.0,30.19,ENE,64,2.0,12.0,87,0.00,,---,0.00,0.00,VWS V14.01,2013-03-19 01:23:00,
2013-03-18 21:28:00,27.4,24.0,30.19,SE,124,0.0,12.0,87,0.00,,---,0.00,0.00,VWS V14.01,2013-03-19 01:28:00,
2013-03-18 21:30:00,27.5,23.9,30.19,SSW,199,1.0,12.0,86,0.00,,---,0.00,0.00,VWS V14.01,2013-03-19 01:30:00,
2013-03-18 21:33:00,27.5,23.9,30.19,SW,217,2.0,4.0,86,0.00,,---,0.00,0.00,VWS V14.01,2013-03-19 01:33:00,
2013-03-18 21:38:00,27.6,24.0,30.20,South,172,3.0,9.0,86,0.00,,---,0.00,0.00,VWS V14.01,2013-03-19 01:38:00,
2013-03-18 21:43:00,27.6,24.0,30.20,WSW,245,2.0,13.0,86,0.00,,---,0.00,0.00,VWS V14.01,2013-03-19 01:43:00,
2013-03-18 21:48:00,27.7,24.1,30.20,SSW,197,1.0,13.0,86,0.00,,---,0.00,0.00,VWS V14.01,2013-03-19 01:48:00,
2013-03-18 21:53:00,27.7,24.1,30.20,SW,233,2.0,16.0,86,0.00,,---,0.00,0.00,VWS V14.01,2013-03-19 01:53:00,
2013-03-18 21:58:00,27.7,24.1,30.20,ESE,102,10.0,16.0,86,0.00,,---,0.00,0.00,VWS V14.01,2013-03-19 01:58:00,
2013-03-18 22:00:00,27.7,24.1,30.20,East,96,3.0,16.0,86,0.00,,---,0.00,0.00,VWS V14.01,2013-03-19 02:00:00,
2013-03-18 22:03:00,27.7,24.1,30.20,ESE,116,7.0,7.0,86,0.00,,---,0.00,0.00,VWS V14.01,2013-03-19 02:03:00,
2013-03-18 22:08:00,27.7,24.3,30.20,SE,145,6.0,18.0,87,0.00,,---,0.00,0.00,VWS V14.01,2013-03-19 02:08:00,
2013-03-18 22:13:00,27.6,24.2,30.19,ESE,111,4.0,18.0,87,0.00,,---,0.00,0.00,VWS V14.01,2013-03-19 02:13:00,
2013-03-18 22:18:00,27.7,24.3,30.19,SSE,147,0.0,18.0,87,0.00,,---,0.00,0.00,VWS V14.01,2013-03-19 02:18:00,
2013-03-18 22:23:00,27.7,24.3,30.19,ESE,103,2.0,18.0,87,0.00,,---,0.00,0.00,VWS V14.01,2013-03-19 02:23:00,
2013-03-18 22:28:00,27.7,24.3,30.19,ESE,120,0.0,18.0,87,0.00,,---,0.00,0.00,VWS V14.01,2013-03-19 02:28:00,
2013-03-18 22:30:00,27.7,24.3,30.19,ENE,65,0.0,18.0,87,0.00,,---,0.00,0.00,VWS V14.01,2013-03-19 02:30:00,
2013-03-18 22:33:00,27.7,24.3,30.19,East,82,3.0,5.0,87,0.00,,---,0.00,0.00,VWS V14.01,2013-03-19 02:33:00,
2013-03-18 22:38:00,27.6,24.2,30.19,ENE,64,2.0,9.0,87,0.00,,---,0.00,0.00,VWS V14.01,2013-03-19 02:38:00,
2013-03-18 22:43:00,27.6,24.5,30.19,NNE,23,0.0,10.0,88,0.00,,---,0.00,0.00,VWS V14.01,2013-03-19 02:43:00,
2013-03-18 22:48:00,27.6,24.5,30.18,ESE,111,0.0,12.0,88,0.00,,---,0.00,0.00,VWS V14.01,2013-03-19 02:48:00,
2013-03-18 22:53:00,27.6,24.8,30.17,ESE,113,1.0,12.0,89,0.00,,---,0.00,0.00,VWS V14.01,2013-03-19 02:53:00,
2013-03-18 22:58:00,27.5,24.7,30.17,East,87,2.0,12.0,89,0.00,,---,0.00,0.00,VWS V14.01,2013-03-19 02:58:00,
2013-03-18 23:00:00,27.5,25.0,30.17,ENE,74,5.0,12.0,90,0.00,,---,0.00,0.00,VWS V14.01,2013-03-19 03:00:00,
2013-03-18 23:03:00,27.5,25.0,30.16,ESE,109,4.0,7.0,90,0.00,,---,0.00,0.00,VWS V14.01,2013-03-19 03:03:00,
2013-03-18 23:08:00,27.4,24.9,30.16,ENE,68,2.0,9.0,90,0.00,,---,0.00,0.00,VWS V14.01,2013-03-19 03:08:00,
2013-03-18 23:13:00,27.4,24.9,30.16,SE,137,4.0,9.0,90,0.00,,---,0.00,0.00,VWS V14.01,2013-03-19 03:13:00,
2013-03-18 23:18:00,27.4,24.9,30.15,ESE,121,2.0,9.0,90,0.00,,---,0.00,0.00,VWS V14.01,2013-03-19 03:18:00,
2013-03-18 23:23:00,27.4,24.9,30.14,ENE,74,0.0,9.0,90,0.00,,---,0.00,0.00,VWS V14.01,2013-03-19 03:23:00,
2013-03-18 23:28:00,27.3,25.0,30.13,East,82,0.0,9.0,91,0.00,,---,0.00,0.00,VWS V14.01,2013-03-19 03:28:00,
2013-03-18 23:30:00,27.4,25.1,30.14,WNW,293,0.0,9.0,91,0.00,,---,0.00,0.00,VWS V14.01,2013-03-19 03:30:00,
2013-03-18 23:33:00,27.4,25.1,30.14,North,5,0.0,2.0,91,0.00,,---,0.00,0.00,VWS V14.01,2013-03-19 03:33:00,
2013-03-18 23:38:00,27.4,25.1,30.13,SE,128,1.0,4.0,91,0.00,,---,0.00,0.00,VWS V14.01,2013-03-19 03:38:00,
2013-03-18 23:43:00,27.4,25.1,30.13,NE,55,4.0,10.0,91,0.00,,---,0.00,0.00,VWS V14.01,2013-03-19 03:43:00,
2013-03-18 23:48:00,27.5,25.2,30.12,East,84,0.0,14.0,91,0.00,,---,0.00,0.00,VWS V14.01,2013-03-19 03:48:00,
2013-03-18 23:53:00,27.5,25.2,30.12,East,90,1.0,14.0,91,0.00,,---,0.00,0.00,VWS V14.01,2013-03-19 03:53:00,
2013-03-18 23:58:00,27.5,25.2,30.12,SE,145,0.0,14.0,91,0.00,,---,0.00,0.00,VWS V14.01,2013-03-19 03:58:00,